sensor_id;sensor_type;location;lat;lon;timestamp;P1;durP1;ratioP1;P2;durP2;ratioP2
18104;SDS011;9179;50.968;3.134;2022-07-29T00:00:29;3.63;;;2.50;;
18104;SDS011;9179;50.968;3.134;2022-07-29T00:02:56;3.33;;;2.67;;
18104;SDS011;9179;50.968;3.134;2022-07-29T00:05:23;2.88;;;2.67;;
18104;SDS011;9179;50.968;3.134;2022-07-29T00:07:50;4.97;;;2.97;;
18104;SDS011;9179;50.968;3.134;2022-07-29T00:10:18;4.45;;;2.75;;
18104;SDS011;9179;50.968;3.134;2022-07-29T00:12:46;3.13;;;2.70;;
18104;SDS011;9179;50.968;3.134;2022-07-29T00:15:13;3.90;;;2.78;;
18104;SDS011;9179;50.968;3.134;2022-07-29T00:17:40;3.22;;;2.70;;
18104;SDS011;9179;50.968;3.134;2022-07-29T00:20:07;3.67;;;3.35;;
18104;SDS011;9179;50.968;3.134;2022-07-29T00:22:36;3.13;;;2.88;;
18104;SDS011;9179;50.968;3.134;2022-07-29T00:25:04;3.40;;;2.92;;
18104;SDS011;9179;50.968;3.134;2022-07-29T00:27:33;5.18;;;3.58;;
18104;SDS011;9179;50.968;3.134;2022-07-29T00:30:00;4.43;;;3.72;;
18104;SDS011;9179;50.968;3.134;2022-07-29T00:32:28;4.00;;;3.35;;
18104;SDS011;9179;50.968;3.134;2022-07-29T00:34:55;4.00;;;2.90;;
18104;SDS011;9179;50.968;3.134;2022-07-29T00:37:39;3.92;;;3.33;;
18104;SDS011;9179;50.968;3.134;2022-07-29T00:40:07;3.58;;;3.17;;
18104;SDS011;9179;50.968;3.134;2022-07-29T00:42:42;3.90;;;3.17;;
18104;SDS011;9179;50.968;3.134;2022-07-29T00:45:09;3.47;;;3.22;;
18104;SDS011;9179;50.968;3.134;2022-07-29T00:47:37;5.38;;;3.13;;
18104;SDS011;9179;50.968;3.134;2022-07-29T00:50:04;3.67;;;3.38;;
18104;SDS011;9179;50.968;3.134;2022-07-29T00:52:33;5.90;;;3.90;;
18104;SDS011;9179;50.968;3.134;2022-07-29T00:55:02;5.47;;;3.38;;
18104;SDS011;9179;50.968;3.134;2022-07-29T00:57:29;3.08;;;2.88;;
18104;SDS011;9179;50.968;3.134;2022-07-29T00:59:57;4.75;;;3.55;;
18104;SDS011;9179;50.968;3.134;2022-07-29T01:02:24;5.88;;;3.33;;
18104;SDS011;9179;50.968;3.134;2022-07-29T01:04:51;3.25;;;2.95;;
18104;SDS011;9179;50.968;3.134;2022-07-29T01:07:20;4.60;;;3.97;;
18104;SDS011;9179;50.968;3.134;2022-07-29T01:09:47;4.07;;;3.60;;
18104;SDS011;9179;50.968;3.134;2022-07-29T01:12:15;3.80;;;3.50;;
18104;SDS011;9179;50.968;3.134;2022-07-29T01:14:43;5.85;;;4.40;;
18104;SDS011;9179;50.968;3.134;2022-07-29T01:17:14;4.00;;;3.60;;
18104;SDS011;9179;50.968;3.134;2022-07-29T01:19:47;4.57;;;3.65;;
18104;SDS011;9179;50.968;3.134;2022-07-29T01:22:26;4.78;;;3.72;;
18104;SDS011;9179;50.968;3.134;2022-07-29T01:25:05;3.85;;;3.55;;
18104;SDS011;9179;50.968;3.134;2022-07-29T01:27:54;5.05;;;3.88;;
18104;SDS011;9179;50.968;3.134;2022-07-29T01:30:36;5.15;;;3.60;;
18104;SDS011;9179;50.968;3.134;2022-07-29T01:33:06;5.05;;;4.07;;
18104;SDS011;9179;50.968;3.134;2022-07-29T01:35:36;4.82;;;4.35;;
18104;SDS011;9179;50.968;3.134;2022-07-29T01:38:07;4.53;;;4.13;;
18104;SDS011;9179;50.968;3.134;2022-07-29T01:40:39;5.45;;;4.43;;
18104;SDS011;9179;50.968;3.134;2022-07-29T01:43:10;4.70;;;4.30;;
18104;SDS011;9179;50.968;3.134;2022-07-29T01:45:43;5.25;;;4.38;;
18104;SDS011;9179;50.968;3.134;2022-07-29T01:48:13;5.93;;;4.75;;
18104;SDS011;9179;50.968;3.134;2022-07-29T01:50:45;5.32;;;4.82;;
18104;SDS011;9179;50.968;3.134;2022-07-29T01:53:15;4.97;;;4.57;;
18104;SDS011;9179;50.968;3.134;2022-07-29T01:55:46;4.82;;;4.35;;
18104;SDS011;9179;50.968;3.134;2022-07-29T01:58:15;7.45;;;5.10;;
18104;SDS011;9179;50.968;3.134;2022-07-29T02:00:46;4.88;;;4.25;;
18104;SDS011;9179;50.968;3.134;2022-07-29T02:03:15;5.47;;;4.90;;
18104;SDS011;9179;50.968;3.134;2022-07-29T02:05:45;5.55;;;4.63;;
18104;SDS011;9179;50.968;3.134;2022-07-29T02:08:14;5.28;;;4.78;;
18104;SDS011;9179;50.968;3.134;2022-07-29T02:10:43;5.03;;;4.63;;
18104;SDS011;9179;50.968;3.134;2022-07-29T02:13:11;4.80;;;4.43;;
18104;SDS011;9179;50.968;3.134;2022-07-29T02:15:41;4.80;;;4.40;;
18104;SDS011;9179;50.968;3.134;2022-07-29T02:18:15;5.45;;;4.85;;
18104;SDS011;9179;50.968;3.134;2022-07-29T02:20:44;4.97;;;4.57;;
18104;SDS011;9179;50.968;3.134;2022-07-29T02:23:14;5.63;;;4.93;;
18104;SDS011;9179;50.968;3.134;2022-07-29T02:25:46;5.63;;;5.13;;
18104;SDS011;9179;50.968;3.134;2022-07-29T02:28:16;4.50;;;4.15;;
18104;SDS011;9179;50.968;3.134;2022-07-29T02:30:45;5.65;;;4.57;;
18104;SDS011;9179;50.968;3.134;2022-07-29T02:33:15;6.60;;;4.93;;
18104;SDS011;9179;50.968;3.134;2022-07-29T02:35:44;6.50;;;5.88;;
18104;SDS011;9179;50.968;3.134;2022-07-29T02:38:13;4.82;;;4.43;;
18104;SDS011;9179;50.968;3.134;2022-07-29T02:41:00;5.28;;;4.60;;
18104;SDS011;9179;50.968;3.134;2022-07-29T02:43:30;5.43;;;5.00;;
18104;SDS011;9179;50.968;3.134;2022-07-29T02:46:00;5.97;;;4.50;;
18104;SDS011;9179;50.968;3.134;2022-07-29T02:48:38;6.15;;;4.72;;
18104;SDS011;9179;50.968;3.134;2022-07-29T02:54:46;5.93;;;4.68;;
18104;SDS011;9179;50.968;3.134;2022-07-29T02:57:19;5.18;;;4.78;;
18104;SDS011;9179;50.968;3.134;2022-07-29T02:59:49;5.55;;;5.07;;
18104;SDS011;9179;50.968;3.134;2022-07-29T03:02:19;9.20;;;6.03;;
18104;SDS011;9179;50.968;3.134;2022-07-29T03:04:51;5.90;;;5.32;;
18104;SDS011;9179;50.968;3.134;2022-07-29T03:07:20;5.65;;;5.18;;
18104;SDS011;9179;50.968;3.134;2022-07-29T03:09:47;6.30;;;5.70;;
18104;SDS011;9179;50.968;3.134;2022-07-29T03:12:16;5.30;;;4.93;;
18104;SDS011;9179;50.968;3.134;2022-07-29T03:14:44;6.63;;;5.97;;
18104;SDS011;9179;50.968;3.134;2022-07-29T03:17:12;7.70;;;5.70;;
18104;SDS011;9179;50.968;3.134;2022-07-29T03:19:39;6.90;;;6.20;;
18104;SDS011;9179;50.968;3.134;2022-07-29T03:22:09;5.88;;;5.32;;
18104;SDS011;9179;50.968;3.134;2022-07-29T03:24:37;6.75;;;6.15;;
18104;SDS011;9179;50.968;3.134;2022-07-29T03:27:04;5.78;;;5.28;;
18104;SDS011;9179;50.968;3.134;2022-07-29T03:29:33;6.65;;;5.88;;
18104;SDS011;9179;50.968;3.134;2022-07-29T03:32:00;5.88;;;5.32;;
18104;SDS011;9179;50.968;3.134;2022-07-29T03:34:29;6.68;;;6.18;;
18104;SDS011;9179;50.968;3.134;2022-07-29T03:36:56;6.05;;;5.47;;
18104;SDS011;9179;50.968;3.134;2022-07-29T03:39:33;7.00;;;5.63;;
18104;SDS011;9179;50.968;3.134;2022-07-29T03:42:05;6.03;;;5.50;;
18104;SDS011;9179;50.968;3.134;2022-07-29T03:44:35;5.82;;;5.32;;
18104;SDS011;9179;50.968;3.134;2022-07-29T03:47:03;5.88;;;5.30;;
18104;SDS011;9179;50.968;3.134;2022-07-29T03:49:34;5.22;;;4.85;;
18104;SDS011;9179;50.968;3.134;2022-07-29T03:52:03;6.43;;;5.80;;
18104;SDS011;9179;50.968;3.134;2022-07-29T03:54:30;6.97;;;5.70;;
18104;SDS011;9179;50.968;3.134;2022-07-29T03:56:59;7.05;;;5.55;;
18104;SDS011;9179;50.968;3.134;2022-07-29T03:59:28;6.55;;;5.88;;
18104;SDS011;9179;50.968;3.134;2022-07-29T04:01:57;5.78;;;5.03;;
18104;SDS011;9179;50.968;3.134;2022-07-29T04:04:26;6.90;;;6.25;;
18104;SDS011;9179;50.968;3.134;2022-07-29T04:06:53;6.68;;;5.15;;
18104;SDS011;9179;50.968;3.134;2022-07-29T04:09:19;6.45;;;5.85;;
18104;SDS011;9179;50.968;3.134;2022-07-29T04:11:48;6.82;;;6.25;;
18104;SDS011;9179;50.968;3.134;2022-07-29T04:14:15;6.13;;;5.63;;
18104;SDS011;9179;50.968;3.134;2022-07-29T04:16:42;6.95;;;5.97;;
18104;SDS011;9179;50.968;3.134;2022-07-29T04:19:09;9.02;;;5.35;;
18104;SDS011;9179;50.968;3.134;2022-07-29T04:21:36;6.78;;;6.18;;
18104;SDS011;9179;50.968;3.134;2022-07-29T04:24:04;6.85;;;6.15;;
18104;SDS011;9179;50.968;3.134;2022-07-29T04:26:32;6.03;;;5.55;;
18104;SDS011;9179;50.968;3.134;2022-07-29T04:29:00;6.40;;;5.88;;
18104;SDS011;9179;50.968;3.134;2022-07-29T04:31:27;8.50;;;6.32;;
18104;SDS011;9179;50.968;3.134;2022-07-29T04:33:54;5.93;;;5.32;;
18104;SDS011;9179;50.968;3.134;2022-07-29T04:36:21;7.70;;;6.05;;
18104;SDS011;9179;50.968;3.134;2022-07-29T04:38:48;6.32;;;5.70;;
18104;SDS011;9179;50.968;3.134;2022-07-29T04:41:15;6.80;;;6.20;;
18104;SDS011;9179;50.968;3.134;2022-07-29T04:43:48;6.03;;;5.20;;
18104;SDS011;9179;50.968;3.134;2022-07-29T04:46:17;6.50;;;5.70;;
18104;SDS011;9179;50.968;3.134;2022-07-29T04:48:44;5.70;;;5.22;;
18104;SDS011;9179;50.968;3.134;2022-07-29T04:51:12;6.53;;;6.03;;
18104;SDS011;9179;50.968;3.134;2022-07-29T04:53:39;7.70;;;6.88;;
18104;SDS011;9179;50.968;3.134;2022-07-29T04:56:06;5.45;;;5.03;;
18104;SDS011;9179;50.968;3.134;2022-07-29T04:58:33;6.65;;;5.88;;
18104;SDS011;9179;50.968;3.134;2022-07-29T05:01:00;6.50;;;5.90;;
18104;SDS011;9179;50.968;3.134;2022-07-29T05:03:29;5.50;;;4.85;;
18104;SDS011;9179;50.968;3.134;2022-07-29T05:05:56;5.13;;;4.70;;
18104;SDS011;9179;50.968;3.134;2022-07-29T05:08:22;5.70;;;4.30;;
18104;SDS011;9179;50.968;3.134;2022-07-29T05:10:49;4.88;;;4.43;;
18104;SDS011;9179;50.968;3.134;2022-07-29T05:13:16;5.40;;;4.40;;
18104;SDS011;9179;50.968;3.134;2022-07-29T05:15:43;4.72;;;4.32;;
18104;SDS011;9179;50.968;3.134;2022-07-29T05:18:10;4.32;;;3.90;;
18104;SDS011;9179;50.968;3.134;2022-07-29T05:20:38;4.10;;;3.80;;
18104;SDS011;9179;50.968;3.134;2022-07-29T05:23:07;4.32;;;3.92;;
18104;SDS011;9179;50.968;3.134;2022-07-29T05:25:33;3.47;;;3.17;;
18104;SDS011;9179;50.968;3.134;2022-07-29T05:28:01;3.78;;;3.47;;
18104;SDS011;9179;50.968;3.134;2022-07-29T05:30:27;4.05;;;3.70;;
18104;SDS011;9179;50.968;3.134;2022-07-29T05:32:55;7.20;;;3.60;;
18104;SDS011;9179;50.968;3.134;2022-07-29T05:35:22;4.68;;;3.45;;
